createdAt,value
2018-06-04T05:05:48.928Z,4.70
2018-06-04T05:10:52.206Z,4.47
2018-06-04T05:15:56.262Z,4.43
2018-06-04T05:20:59.539Z,4.00
2018-06-04T05:26:02.825Z,4.67
2018-06-04T05:31:06.111Z,5.10
2018-06-04T05:36:09.404Z,4.60
2018-06-04T05:41:13.440Z,3.73
2018-06-04T05:46:16.722Z,4.47
2018-06-04T05:51:20.007Z,4.40
2018-06-04T05:56:23.303Z,5.53
2018-06-04T06:01:26.589Z,5.13
2018-06-04T06:06:29.879Z,4.60
2018-06-04T06:11:33.923Z,4.70
2018-06-04T06:16:37.221Z,3.87
2018-06-04T06:21:41.266Z,4.80
2018-06-04T06:26:44.556Z,3.97
2018-06-04T06:31:48.612Z,3.53
2018-06-04T06:36:52.115Z,4.13
2018-06-04T06:41:56.557Z,3.87
2018-06-04T06:46:59.843Z,4.30
2018-06-04T06:52:03.900Z,4.77
2018-06-04T06:57:07.575Z,3.60
2018-06-04T07:02:10.864Z,3.90
2018-06-04T07:07:14.340Z,3.57
2018-06-04T07:12:18.670Z,4.10
2018-06-04T07:17:21.975Z,3.33
2018-06-04T07:22:26.324Z,4.80
2018-06-04T07:27:30.383Z,3.57
2018-06-04T07:32:33.677Z,4.50
2018-06-04T07:37:36.999Z,3.63
2018-06-04T07:42:40.327Z,3.20
2018-06-04T07:47:43.635Z,2.97
2018-06-04T07:52:46.931Z,3.80
2018-06-04T07:57:50.541Z,3.70
2018-06-04T08:02:54.045Z,3.20
2018-06-04T08:07:58.143Z,3.97
2018-06-04T08:13:01.432Z,3.77
2018-06-04T08:18:06.710Z,3.93
2018-06-04T08:23:10.023Z,3.83
2018-06-04T08:28:13.320Z,4.03
2018-06-04T08:33:16.619Z,3.30
2018-06-04T08:38:19.906Z,4.63
2018-06-04T08:43:23.187Z,4.67
2018-06-04T08:48:26.472Z,4.30
2018-06-04T08:53:29.751Z,5.10
2018-06-04T08:58:33.061Z,4.60
2018-06-04T09:03:36.360Z,4.23
2018-06-04T09:08:39.672Z,4.10
2018-06-04T09:13:43.181Z,3.10
2018-06-04T09:18:47.235Z,4.10
2018-06-04T09:23:50.928Z,4.30
2018-06-04T09:28:55.158Z,3.50
2018-06-04T09:33:58.579Z,4.43
2018-06-04T09:39:02.636Z,4.60
2018-06-04T09:44:06.644Z,3.13
2018-06-04T09:49:09.934Z,3.73
2018-06-04T09:54:13.990Z,4.63
2018-06-04T09:59:17.275Z,6.10
2018-06-04T10:04:20.559Z,7.40
2018-06-04T10:09:23.835Z,4.50
2018-06-04T10:14:27.128Z,4.40
2018-06-04T10:19:30.412Z,4.00
2018-06-04T10:24:33.700Z,4.37
2018-06-04T10:29:36.975Z,4.23
2018-06-04T10:34:40.260Z,4.37
2018-06-04T10:39:44.330Z,4.20
2018-06-04T10:44:47.591Z,3.90
2018-06-04T10:50:08.468Z,3.20
2018-06-04T10:55:11.745Z,3.27
2018-06-04T11:00:33.942Z,3.50
2018-06-04T11:05:37.223Z,2.60
2018-06-04T11:10:48.718Z,2.93
2018-06-04T11:15:52.035Z,2.93
2018-06-04T11:20:55.316Z,3.00
2018-06-04T11:25:58.622Z,2.50
2018-06-04T11:31:01.895Z,2.83
2018-06-04T11:36:05.193Z,2.67
2018-06-04T11:41:08.694Z,2.60
2018-06-04T11:46:12.019Z,2.60
2018-06-04T11:51:15.349Z,2.63
2018-06-04T11:56:18.659Z,2.20
2018-06-04T12:01:22.664Z,3.53
2018-06-04T12:06:25.950Z,5.03
2018-06-04T12:11:30.029Z,2.57
2018-06-04T12:16:33.295Z,2.20
2018-06-04T12:21:37.597Z,1.80
2018-06-04T12:26:40.924Z,2.40
2018-06-04T12:31:44.212Z,2.50
2018-06-04T12:36:47.509Z,2.90
2018-06-04T12:41:50.835Z,3.00
2018-06-04T12:46:54.135Z,2.70
2018-06-04T12:51:57.416Z,3.27
2018-06-04T12:57:14.881Z,2.43
2018-06-04T13:02:18.171Z,2.63
2018-06-04T13:07:22.240Z,2.40
2018-06-04T13:12:25.514Z,2.13
2018-06-04T13:17:28.799Z,2.13
2018-06-04T13:22:32.092Z,2.37
2018-06-04T13:27:35.395Z,2.63
2018-06-04T13:32:38.675Z,2.43
2018-06-04T13:37:41.967Z,2.93
2018-06-04T13:42:45.263Z,2.70
2018-06-04T13:47:49.312Z,2.90
2018-06-04T13:52:52.603Z,2.70
2018-06-04T13:57:56.683Z,2.37
2018-06-04T14:02:59.967Z,2.65
2018-06-04T14:08:08.599Z,2.10
2018-06-04T14:13:11.896Z,2.45
2018-06-04T14:18:15.939Z,2.75
2018-06-04T14:23:19.235Z,3.42
2018-06-04T14:28:22.523Z,4.50
2018-06-04T14:33:25.802Z,2.65
2018-06-04T14:38:42.323Z,2.85
2018-06-04T14:43:45.607Z,2.80
2018-06-04T14:49:09.241Z,2.53
2018-06-04T14:54:12.523Z,2.53
2018-06-04T14:59:15.812Z,3.22
2018-06-04T15:04:19.885Z,3.45
2018-06-04T15:09:23.165Z,3.62
2018-06-04T15:14:26.451Z,3.78
2018-06-04T15:19:30.505Z,2.55
2018-06-04T15:24:33.811Z,3.25
2018-06-04T15:29:47.171Z,3.22
2018-06-04T15:34:50.466Z,2.95
2018-06-04T15:40:05.750Z,2.92
2018-06-04T15:45:09.794Z,2.90
2018-06-04T15:50:16.518Z,2.40
2018-06-04T15:55:19.779Z,3.10
2018-06-04T16:00:31.478Z,2.85
2018-06-04T16:05:35.532Z,3.15
2018-06-04T16:10:43.152Z,2.97
2018-06-04T16:15:46.446Z,2.55
2018-06-04T16:20:54.350Z,3.10
2018-06-04T16:25:57.642Z,2.65
2018-06-04T16:31:00.925Z,2.33
2018-06-04T16:36:04.209Z,2.70
2018-06-04T16:41:08.284Z,3.15
2018-06-04T16:46:11.568Z,3.75
2018-06-04T16:51:14.863Z,6.28
2018-06-04T16:56:18.159Z,3.03
2018-06-04T17:01:22.202Z,3.05
2018-06-04T17:06:25.715Z,2.47
2018-06-04T17:11:29.795Z,2.58
2018-06-04T17:16:33.096Z,2.90
2018-06-04T17:21:36.406Z,2.10
2018-06-04T17:26:39.711Z,2.25
2018-06-04T17:31:43.015Z,2.70
2018-06-04T17:36:46.294Z,2.33
2018-06-04T17:41:50.355Z,2.28
2018-06-04T17:46:53.635Z,3.10
2018-06-04T17:51:57.683Z,3.00
2018-06-04T17:57:00.977Z,2.75
2018-06-04T18:02:05.026Z,2.92
2018-06-04T18:07:08.303Z,2.90
2018-06-04T18:12:11.602Z,3.37
2018-06-04T18:17:14.887Z,5.15
2018-06-04T18:22:18.163Z,3.92
2018-06-04T18:27:21.489Z,3.10
2018-06-04T18:32:24.772Z,3.53
2018-06-04T18:37:28.033Z,3.37
2018-06-04T18:42:31.324Z,4.18
2018-06-04T18:47:34.616Z,4.93
2018-06-04T18:52:38.661Z,3.90
2018-06-04T18:57:41.945Z,4.30
2018-06-04T19:02:45.995Z,3.05
2018-06-04T19:07:49.291Z,4.03
2018-06-04T19:12:52.571Z,4.65
2018-06-04T19:17:55.871Z,4.65
2018-06-04T19:22:59.156Z,4.73
2018-06-04T19:28:02.453Z,4.37
2018-06-04T19:33:05.772Z,4.50
2018-06-04T19:38:09.026Z,4.10
2018-06-04T19:43:12.312Z,3.97
2018-06-04T19:48:15.603Z,4.70
2018-06-04T19:53:18.903Z,4.00
2018-06-04T19:58:23.307Z,4.40
2018-06-04T20:03:26.581Z,5.40
2018-06-04T20:08:29.872Z,4.10
2018-06-04T20:13:33.152Z,4.20
2018-06-04T20:18:37.201Z,4.27
2018-06-04T20:23:41.259Z,6.40
2018-06-04T20:28:44.548Z,6.00
2018-06-04T20:33:47.866Z,4.50
2018-06-04T20:38:51.880Z,5.10
2018-06-04T20:43:55.934Z,4.17
2018-06-04T20:48:59.220Z,4.63
2018-06-04T20:54:03.226Z,4.50
2018-06-04T20:59:09.974Z,4.50
2018-06-04T21:04:13.264Z,4.43
2018-06-04T21:09:27.299Z,4.70
2018-06-04T21:14:31.374Z,5.27
2018-06-04T21:19:34.659Z,4.60
2018-06-04T21:24:37.953Z,4.53
2018-06-04T21:29:42.000Z,4.90
2018-06-04T21:34:45.293Z,5.53
2018-06-04T21:39:48.592Z,4.90
2018-06-04T21:44:51.875Z,5.13
2018-06-04T21:49:55.175Z,5.10
2018-06-04T21:54:58.458Z,4.33
2018-06-04T22:00:01.737Z,4.60
2018-06-04T22:05:05.022Z,4.63
2018-06-04T22:10:08.336Z,4.43
2018-06-04T22:15:12.012Z,4.67
2018-06-04T22:20:16.096Z,4.60
2018-06-04T22:25:19.395Z,4.60
